sensor_id;sensor_type;location;lat;lon;timestamp;temperature;humidity
51839;DHT22;37886;53.174;6.368;2022-12-24T00:01:17;6.50;99.90
51839;DHT22;37886;53.174;6.368;2022-12-24T00:03:43;6.50;99.90
51839;DHT22;37886;53.174;6.368;2022-12-24T00:06:15;6.50;99.90
51839;DHT22;37886;53.174;6.368;2022-12-24T00:08:41;6.40;99.90
51839;DHT22;37886;53.174;6.368;2022-12-24T00:11:07;6.40;99.90
51839;DHT22;37886;53.174;6.368;2022-12-24T00:13:32;6.40;99.90
51839;DHT22;37886;53.174;6.368;2022-12-24T00:15:58;6.50;99.90
51839;DHT22;37886;53.174;6.368;2022-12-24T00:18:24;6.50;99.90
51839;DHT22;37886;53.174;6.368;2022-12-24T00:20:50;6.50;99.90
51839;DHT22;37886;53.174;6.368;2022-12-24T00:23:16;6.50;99.90
51839;DHT22;37886;53.174;6.368;2022-12-24T00:25:43;6.40;99.90
51839;DHT22;37886;53.174;6.368;2022-12-24T00:28:09;6.40;99.90
51839;DHT22;37886;53.174;6.368;2022-12-24T00:30:37;6.40;99.90
51839;DHT22;37886;53.174;6.368;2022-12-24T00:33:04;6.40;99.90
51839;DHT22;37886;53.174;6.368;2022-12-24T00:35:33;6.50;99.90
51839;DHT22;37886;53.174;6.368;2022-12-24T00:37:59;6.40;99.90
51839;DHT22;37886;53.174;6.368;2022-12-24T00:40:24;6.40;99.90
51839;DHT22;37886;53.174;6.368;2022-12-24T00:42:50;6.40;99.90
51839;DHT22;37886;53.174;6.368;2022-12-24T00:45:16;6.40;99.90
51839;DHT22;37886;53.174;6.368;2022-12-24T00:47:42;6.50;99.90
51839;DHT22;37886;53.174;6.368;2022-12-24T00:50:08;6.40;99.90
51839;DHT22;37886;53.174;6.368;2022-12-24T00:52:34;6.40;99.90
51839;DHT22;37886;53.174;6.368;2022-12-24T00:55:00;6.40;99.90
51839;DHT22;37886;53.174;6.368;2022-12-24T00:57:25;6.40;99.90
51839;DHT22;37886;53.174;6.368;2022-12-24T00:59:51;6.40;99.90
51839;DHT22;37886;53.174;6.368;2022-12-24T01:02:17;6.40;99.90
51839;DHT22;37886;53.174;6.368;2022-12-24T01:04:42;6.40;99.90
51839;DHT22;37886;53.174;6.368;2022-12-24T01:07:29;6.40;99.90
51839;DHT22;37886;53.174;6.368;2022-12-24T01:09:55;6.40;99.90
51839;DHT22;37886;53.174;6.368;2022-12-24T01:12:20;6.40;99.90
51839;DHT22;37886;53.174;6.368;2022-12-24T01:14:46;6.40;99.90
51839;DHT22;37886;53.174;6.368;2022-12-24T01:17:12;6.40;99.90
51839;DHT22;37886;53.174;6.368;2022-12-24T01:19:37;6.40;99.90
51839;DHT22;37886;53.174;6.368;2022-12-24T01:22:06;6.50;99.90
51839;DHT22;37886;53.174;6.368;2022-12-24T01:24:32;6.50;99.90
51839;DHT22;37886;53.174;6.368;2022-12-24T01:26:57;6.50;99.90
51839;DHT22;37886;53.174;6.368;2022-12-24T01:29:23;6.50;99.90
51839;DHT22;37886;53.174;6.368;2022-12-24T01:31:49;6.50;99.90
51839;DHT22;37886;53.174;6.368;2022-12-24T01:34:14;6.40;99.90
51839;DHT22;37886;53.174;6.368;2022-12-24T01:36:40;6.40;99.90
51839;DHT22;37886;53.174;6.368;2022-12-24T01:39:06;6.40;99.90
51839;DHT22;37886;53.174;6.368;2022-12-24T01:41:32;6.50;99.90
51839;DHT22;37886;53.174;6.368;2022-12-24T01:44:31;6.50;99.90
51839;DHT22;37886;53.174;6.368;2022-12-24T01:47:17;6.50;99.90
51839;DHT22;37886;53.174;6.368;2022-12-24T01:49:56;6.50;99.90
51839;DHT22;37886;53.174;6.368;2022-12-24T01:52:27;6.50;99.90
51839;DHT22;37886;53.174;6.368;2022-12-24T01:54:59;6.40;99.90
51839;DHT22;37886;53.174;6.368;2022-12-24T01:57:33;6.40;99.90
51839;DHT22;37886;53.174;6.368;2022-12-24T02:00:05;6.50;99.90
51839;DHT22;37886;53.174;6.368;2022-12-24T02:02:35;6.50;99.90
51839;DHT22;37886;53.174;6.368;2022-12-24T02:05:15;6.50;99.90
51839;DHT22;37886;53.174;6.368;2022-12-24T02:07:42;6.50;99.90
51839;DHT22;37886;53.174;6.368;2022-12-24T02:10:10;6.40;99.90
51839;DHT22;37886;53.174;6.368;2022-12-24T02:12:37;6.50;99.90
51839;DHT22;37886;53.174;6.368;2022-12-24T02:15:05;6.50;99.90
51839;DHT22;37886;53.174;6.368;2022-12-24T02:17:53;6.40;99.90
51839;DHT22;37886;53.174;6.368;2022-12-24T02:20:42;6.50;99.90
51839;DHT22;37886;53.174;6.368;2022-12-24T02:23:36;6.50;99.90
51839;DHT22;37886;53.174;6.368;2022-12-24T02:29:18;6.60;99.90
51839;DHT22;37886;53.174;6.368;2022-12-24T02:31:55;6.60;99.90
51839;DHT22;37886;53.174;6.368;2022-12-24T02:34:35;6.60;99.90
51839;DHT22;37886;53.174;6.368;2022-12-24T02:37:25;6.70;99.90
51839;DHT22;37886;53.174;6.368;2022-12-24T02:42:49;6.70;99.90
51839;DHT22;37886;53.174;6.368;2022-12-24T02:45:19;6.80;99.90
51839;DHT22;37886;53.174;6.368;2022-12-24T02:47:47;6.80;99.90
51839;DHT22;37886;53.174;6.368;2022-12-24T02:50:17;6.90;99.90
51839;DHT22;37886;53.174;6.368;2022-12-24T02:52:45;6.90;99.90
51839;DHT22;37886;53.174;6.368;2022-12-24T02:55:20;6.90;99.90
51839;DHT22;37886;53.174;6.368;2022-12-24T03:00:15;7.00;99.90
51839;DHT22;37886;53.174;6.368;2022-12-24T03:13:17;7.30;99.90
51839;DHT22;37886;53.174;6.368;2022-12-24T03:15:45;7.50;99.90
51839;DHT22;37886;53.174;6.368;2022-12-24T03:18:14;7.60;99.90
51839;DHT22;37886;53.174;6.368;2022-12-24T03:20:45;7.70;99.90
51839;DHT22;37886;53.174;6.368;2022-12-24T03:23:12;7.80;99.90
51839;DHT22;37886;53.174;6.368;2022-12-24T03:25:40;7.80;99.90
51839;DHT22;37886;53.174;6.368;2022-12-24T03:28:08;7.90;99.90
51839;DHT22;37886;53.174;6.368;2022-12-24T03:30:34;7.90;99.90
51839;DHT22;37886;53.174;6.368;2022-12-24T03:33:00;7.90;99.90
51839;DHT22;37886;53.174;6.368;2022-12-24T03:35:26;7.90;99.90
51839;DHT22;37886;53.174;6.368;2022-12-24T03:37:52;7.90;99.90
51839;DHT22;37886;53.174;6.368;2022-12-24T03:40:17;7.90;99.90
51839;DHT22;37886;53.174;6.368;2022-12-24T03:42:43;7.90;99.90
51839;DHT22;37886;53.174;6.368;2022-12-24T03:45:09;7.90;99.90
51839;DHT22;37886;53.174;6.368;2022-12-24T03:47:35;7.90;99.90
51839;DHT22;37886;53.174;6.368;2022-12-24T03:50:01;7.90;99.90
51839;DHT22;37886;53.174;6.368;2022-12-24T03:52:27;7.90;99.90
51839;DHT22;37886;53.174;6.368;2022-12-24T03:54:52;7.90;99.90
51839;DHT22;37886;53.174;6.368;2022-12-24T03:57:18;8.00;99.90
51839;DHT22;37886;53.174;6.368;2022-12-24T03:59:44;8.10;99.90
51839;DHT22;37886;53.174;6.368;2022-12-24T04:02:10;8.10;99.90
51839;DHT22;37886;53.174;6.368;2022-12-24T04:04:35;8.20;99.90
51839;DHT22;37886;53.174;6.368;2022-12-24T04:07:02;8.20;99.90
51839;DHT22;37886;53.174;6.368;2022-12-24T04:09:28;8.20;99.90
51839;DHT22;37886;53.174;6.368;2022-12-24T04:11:54;8.30;99.90
51839;DHT22;37886;53.174;6.368;2022-12-24T04:14:20;8.30;99.90
51839;DHT22;37886;53.174;6.368;2022-12-24T04:16:46;8.40;99.90
51839;DHT22;37886;53.174;6.368;2022-12-24T04:19:11;8.30;99.90
51839;DHT22;37886;53.174;6.368;2022-12-24T04:21:37;8.40;99.90
51839;DHT22;37886;53.174;6.368;2022-12-24T04:24:03;8.40;99.90
51839;DHT22;37886;53.174;6.368;2022-12-24T04:26:29;8.30;99.90
51839;DHT22;37886;53.174;6.368;2022-12-24T04:28:54;8.30;99.90
51839;DHT22;37886;53.174;6.368;2022-12-24T04:31:20;8.20;99.90
51839;DHT22;37886;53.174;6.368;2022-12-24T04:33:46;8.20;99.90
51839;DHT22;37886;53.174;6.368;2022-12-24T04:36:14;8.20;99.90
51839;DHT22;37886;53.174;6.368;2022-12-24T04:38:41;8.20;99.90
51839;DHT22;37886;53.174;6.368;2022-12-24T04:41:11;8.20;99.90
51839;DHT22;37886;53.174;6.368;2022-12-24T04:43:37;8.10;99.90
51839;DHT22;37886;53.174;6.368;2022-12-24T04:46:08;8.20;99.90
51839;DHT22;37886;53.174;6.368;2022-12-24T04:48:34;8.20;99.90
51839;DHT22;37886;53.174;6.368;2022-12-24T04:51:04;8.10;99.90
51839;DHT22;37886;53.174;6.368;2022-12-24T04:53:31;8.10;99.90
51839;DHT22;37886;53.174;6.368;2022-12-24T04:55:57;8.10;99.90
51839;DHT22;37886;53.174;6.368;2022-12-24T04:58:23;8.10;99.90
51839;DHT22;37886;53.174;6.368;2022-12-24T05:00:49;8.20;99.90
51839;DHT22;37886;53.174;6.368;2022-12-24T05:03:15;8.20;99.90
51839;DHT22;37886;53.174;6.368;2022-12-24T05:05:40;8.20;99.90
51839;DHT22;37886;53.174;6.368;2022-12-24T05:08:06;8.20;99.90
51839;DHT22;37886;53.174;6.368;2022-12-24T05:10:32;8.10;99.90
51839;DHT22;37886;53.174;6.368;2022-12-24T05:12:58;8.10;99.90
51839;DHT22;37886;53.174;6.368;2022-12-24T05:15:24;8.20;99.90
51839;DHT22;37886;53.174;6.368;2022-12-24T05:17:49;8.20;99.90
51839;DHT22;37886;53.174;6.368;2022-12-24T05:20:16;8.20;99.90
51839;DHT22;37886;53.174;6.368;2022-12-24T05:22:42;8.10;99.90
51839;DHT22;37886;53.174;6.368;2022-12-24T05:25:34;8.10;99.90
51839;DHT22;37886;53.174;6.368;2022-12-24T05:28:19;8.20;99.90
51839;DHT22;37886;53.174;6.368;2022-12-24T05:30:45;8.10;99.90
51839;DHT22;37886;53.174;6.368;2022-12-24T05:33:10;8.10;99.90
51839;DHT22;37886;53.174;6.368;2022-12-24T05:35:36;8.20;99.90
51839;DHT22;37886;53.174;6.368;2022-12-24T05:38:02;8.20;99.90
51839;DHT22;37886;53.174;6.368;2022-12-24T05:40:28;8.20;99.90
51839;DHT22;37886;53.174;6.368;2022-12-24T05:42:53;8.20;99.90
51839;DHT22;37886;53.174;6.368;2022-12-24T05:45:19;8.20;99.90
51839;DHT22;37886;53.174;6.368;2022-12-24T05:47:45;8.20;99.90
51839;DHT22;37886;53.174;6.368;2022-12-24T05:50:11;8.20;99.90
51839;DHT22;37886;53.174;6.368;2022-12-24T05:52:36;8.20;99.90
51839;DHT22;37886;53.174;6.368;2022-12-24T05:55:02;8.20;99.90
51839;DHT22;37886;53.174;6.368;2022-12-24T05:57:28;8.20;99.90
51839;DHT22;37886;53.174;6.368;2022-12-24T05:59:54;8.20;99.90
51839;DHT22;37886;53.174;6.368;2022-12-24T06:02:20;8.20;99.90
51839;DHT22;37886;53.174;6.368;2022-12-24T06:04:46;8.20;99.90
51839;DHT22;37886;53.174;6.368;2022-12-24T06:07:11;8.20;99.90
51839;DHT22;37886;53.174;6.368;2022-12-24T06:09:37;8.20;99.90
51839;DHT22;37886;53.174;6.368;2022-12-24T06:12:03;8.30;99.90
51839;DHT22;37886;53.174;6.368;2022-12-24T06:14:29;8.30;99.90
51839;DHT22;37886;53.174;6.368;2022-12-24T06:16:54;8.30;99.90
51839;DHT22;37886;53.174;6.368;2022-12-24T06:19:20;8.30;99.90
51839;DHT22;37886;53.174;6.368;2022-12-24T06:21:46;8.30;99.90
51839;DHT22;37886;53.174;6.368;2022-12-24T06:24:11;8.40;99.90
51839;DHT22;37886;53.174;6.368;2022-12-24T06:26:37;8.40;99.90
51839;DHT22;37886;53.174;6.368;2022-12-24T06:29:03;8.40;99.90
51839;DHT22;37886;53.174;6.368;2022-12-24T06:31:28;8.40;99.90
51839;DHT22;37886;53.174;6.368;2022-12-24T06:33:54;8.40;99.90
51839;DHT22;37886;53.174;6.368;2022-12-24T06:36:24;8.40;99.90
51839;DHT22;37886;53.174;6.368;2022-12-24T06:38:51;8.40;99.90
51839;DHT22;37886;53.174;6.368;2022-12-24T06:41:18;8.50;99.90
51839;DHT22;37886;53.174;6.368;2022-12-24T06:43:45;8.40;99.90
51839;DHT22;37886;53.174;6.368;2022-12-24T06:46:12;8.40;99.90
51839;DHT22;37886;53.174;6.368;2022-12-24T06:48:38;8.40;99.90
51839;DHT22;37886;53.174;6.368;2022-12-24T06:51:04;8.30;99.90
51839;DHT22;37886;53.174;6.368;2022-12-24T06:53:30;8.30;99.90
51839;DHT22;37886;53.174;6.368;2022-12-24T06:56:07;8.30;99.90
51839;DHT22;37886;53.174;6.368;2022-12-24T06:58:34;8.30;99.90
51839;DHT22;37886;53.174;6.368;2022-12-24T07:01:04;8.40;99.90
51839;DHT22;37886;53.174;6.368;2022-12-24T07:03:31;8.30;99.90
51839;DHT22;37886;53.174;6.368;2022-12-24T07:05:57;8.30;99.90
51839;DHT22;37886;53.174;6.368;2022-12-24T07:08:23;8.30;99.90
51839;DHT22;37886;53.174;6.368;2022-12-24T07:10:50;8.30;99.90
51839;DHT22;37886;53.174;6.368;2022-12-24T07:13:16;8.20;99.90
51839;DHT22;37886;53.174;6.368;2022-12-24T07:15:42;8.20;99.90
51839;DHT22;37886;53.174;6.368;2022-12-24T07:18:08;8.20;99.90
51839;DHT22;37886;53.174;6.368;2022-12-24T07:20:34;8.20;99.90
51839;DHT22;37886;53.174;6.368;2022-12-24T07:22:59;8.20;99.90
51839;DHT22;37886;53.174;6.368;2022-12-24T07:25:25;8.20;99.90
51839;DHT22;37886;53.174;6.368;2022-12-24T07:27:51;8.00;99.90
51839;DHT22;37886;53.174;6.368;2022-12-24T07:30:17;8.10;99.90
51839;DHT22;37886;53.174;6.368;2022-12-24T07:32:42;8.20;99.90
51839;DHT22;37886;53.174;6.368;2022-12-24T07:35:08;8.20;99.90
51839;DHT22;37886;53.174;6.368;2022-12-24T07:37:34;8.20;99.90
51839;DHT22;37886;53.174;6.368;2022-12-24T07:40:00;8.20;99.90
51839;DHT22;37886;53.174;6.368;2022-12-24T07:42:26;8.10;99.90
51839;DHT22;37886;53.174;6.368;2022-12-24T07:44:52;8.20;99.90
51839;DHT22;37886;53.174;6.368;2022-12-24T07:47:17;8.20;99.90
51839;DHT22;37886;53.174;6.368;2022-12-24T07:49:43;8.20;99.90
51839;DHT22;37886;53.174;6.368;2022-12-24T07:52:09;8.30;99.90
51839;DHT22;37886;53.174;6.368;2022-12-24T07:54:35;8.30;99.90
51839;DHT22;37886;53.174;6.368;2022-12-24T07:57:01;8.20;99.90
51839;DHT22;37886;53.174;6.368;2022-12-24T07:59:26;8.30;99.90
51839;DHT22;37886;53.174;6.368;2022-12-24T08:01:52;8.30;99.90
51839;DHT22;37886;53.174;6.368;2022-12-24T08:04:18;8.30;99.90
51839;DHT22;37886;53.174;6.368;2022-12-24T08:06:43;8.30;99.90
51839;DHT22;37886;53.174;6.368;2022-12-24T08:09:09;8.30;99.90
51839;DHT22;37886;53.174;6.368;2022-12-24T08:11:35;8.30;99.90
51839;DHT22;37886;53.174;6.368;2022-12-24T08:14:00;8.30;99.90
51839;DHT22;37886;53.174;6.368;2022-12-24T08:16:26;8.30;99.90
51839;DHT22;37886;53.174;6.368;2022-12-24T08:18:52;8.30;99.90
51839;DHT22;37886;53.174;6.368;2022-12-24T08:21:18;8.30;99.90
51839;DHT22;37886;53.174;6.368;2022-12-24T08:23:45;8.20;99.90
51839;DHT22;37886;53.174;6.368;2022-12-24T08:26:11;8.20;99.90
51839;DHT22;37886;53.174;6.368;2022-12-24T08:28:37;8.20;99.90
51839;DHT22;37886;53.174;6.368;2022-12-24T08:31:03;8.20;99.90
51839;DHT22;37886;53.174;6.368;2022-12-24T08:33:29;8.20;99.90
51839;DHT22;37886;53.174;6.368;2022-12-24T08:35:57;8.10;99.90
51839;DHT22;37886;53.174;6.368;2022-12-24T08:38:23;8.20;99.90
51839;DHT22;37886;53.174;6.368;2022-12-24T08:40:48;8.30;99.90
51839;DHT22;37886;53.174;6.368;2022-12-24T08:43:16;8.30;99.90
51839;DHT22;37886;53.174;6.368;2022-12-24T08:45:42;8.30;99.90
51839;DHT22;37886;53.174;6.368;2022-12-24T08:48:08;8.30;99.90
51839;DHT22;37886;53.174;6.368;2022-12-24T08:50:37;8.40;99.90
51839;DHT22;37886;53.174;6.368;2022-12-24T08:53:28;8.30;99.90
51839;DHT22;37886;53.174;6.368;2022-12-24T09:00:26;8.40;99.90
51839;DHT22;37886;53.174;6.368;2022-12-24T09:02:51;8.40;99.90
51839;DHT22;37886;53.174;6.368;2022-12-24T09:05:17;8.40;99.90
51839;DHT22;37886;53.174;6.368;2022-12-24T09:07:43;8.40;99.90
51839;DHT22;37886;53.174;6.368;2022-12-24T09:10:10;8.40;99.90
51839;DHT22;37886;53.174;6.368;2022-12-24T09:12:37;8.40;99.90
51839;DHT22;37886;53.174;6.368;2022-12-24T09:15:03;8.40;99.90
51839;DHT22;37886;53.174;6.368;2022-12-24T09:17:30;8.40;99.90
51839;DHT22;37886;53.174;6.368;2022-12-24T09:19:56;8.50;99.90
51839;DHT22;37886;53.174;6.368;2022-12-24T09:22:21;8.50;99.90
51839;DHT22;37886;53.174;6.368;2022-12-24T09:24:47;8.50;99.90
51839;DHT22;37886;53.174;6.368;2022-12-24T09:27:13;8.50;99.90
51839;DHT22;37886;53.174;6.368;2022-12-24T09:29:39;8.60;99.90
51839;DHT22;37886;53.174;6.368;2022-12-24T09:39:09;8.60;99.90
51839;DHT22;37886;53.174;6.368;2022-12-24T09:41:47;8.70;99.90
51839;DHT22;37886;53.174;6.368;2022-12-24T09:48:27;8.80;99.90
51839;DHT22;37886;53.174;6.368;2022-12-24T09:51:11;8.90;99.90
51839;DHT22;37886;53.174;6.368;2022-12-24T09:53:50;8.90;99.90
51839;DHT22;37886;53.174;6.368;2022-12-24T09:56:20;8.90;99.90
51839;DHT22;37886;53.174;6.368;2022-12-24T09:58:59;8.90;99.90
51839;DHT22;37886;53.174;6.368;2022-12-24T10:01:25;8.90;99.90
51839;DHT22;37886;53.174;6.368;2022-12-24T10:03:53;8.90;99.90
51839;DHT22;37886;53.174;6.368;2022-12-24T10:06:23;8.90;99.90
51839;DHT22;37886;53.174;6.368;2022-12-24T10:09:22;9.00;99.90
51839;DHT22;37886;53.174;6.368;2022-12-24T10:12:13;9.10;99.90
51839;DHT22;37886;53.174;6.368;2022-12-24T10:17:26;9.30;99.90
51839;DHT22;37886;53.174;6.368;2022-12-24T10:22:51;9.50;99.90
51839;DHT22;37886;53.174;6.368;2022-12-24T10:25:37;9.60;99.90
51839;DHT22;37886;53.174;6.368;2022-12-24T10:28:16;9.70;99.90
51839;DHT22;37886;53.174;6.368;2022-12-24T10:30:46;9.70;99.90
51839;DHT22;37886;53.174;6.368;2022-12-24T10:33:26;9.70;99.90
51839;DHT22;37886;53.174;6.368;2022-12-24T10:35:54;9.70;99.90
51839;DHT22;37886;53.174;6.368;2022-12-24T10:38:21;9.70;99.90
51839;DHT22;37886;53.174;6.368;2022-12-24T10:40:49;9.70;99.90
51839;DHT22;37886;53.174;6.368;2022-12-24T10:43:19;9.70;99.90
51839;DHT22;37886;53.174;6.368;2022-12-24T10:45:48;9.70;99.90
51839;DHT22;37886;53.174;6.368;2022-12-24T10:48:41;9.70;99.90
51839;DHT22;37886;53.174;6.368;2022-12-24T10:51:34;9.80;99.90
51839;DHT22;37886;53.174;6.368;2022-12-24T10:54:06;9.80;99.90
51839;DHT22;37886;53.174;6.368;2022-12-24T10:56:50;9.70;99.90
51839;DHT22;37886;53.174;6.368;2022-12-24T11:04:49;9.80;99.90
51839;DHT22;37886;53.174;6.368;2022-12-24T11:07:21;9.80;99.90
51839;DHT22;37886;53.174;6.368;2022-12-24T11:10:05;9.80;99.90
51839;DHT22;37886;53.174;6.368;2022-12-24T11:12:31;9.90;99.90
51839;DHT22;37886;53.174;6.368;2022-12-24T11:15:21;9.90;99.90
51839;DHT22;37886;53.174;6.368;2022-12-24T11:18:00;9.90;99.90
51839;DHT22;37886;53.174;6.368;2022-12-24T11:20:30;9.90;99.90
51839;DHT22;37886;53.174;6.368;2022-12-24T11:22:57;9.90;99.90
51839;DHT22;37886;53.174;6.368;2022-12-24T11:25:27;9.90;99.90
51839;DHT22;37886;53.174;6.368;2022-12-24T11:27:54;9.80;99.90
51839;DHT22;37886;53.174;6.368;2022-12-24T11:30:31;9.80;99.90
51839;DHT22;37886;53.174;6.368;2022-12-24T11:35:28;9.80;99.90
51839;DHT22;37886;53.174;6.368;2022-12-24T11:40:46;9.80;99.90
51839;DHT22;37886;53.174;6.368;2022-12-24T11:43:18;9.70;99.90
51839;DHT22;37886;53.174;6.368;2022-12-24T11:45:53;9.70;99.90
51839;DHT22;37886;53.174;6.368;2022-12-24T11:51:24;9.70;99.90
51839;DHT22;37886;53.174;6.368;2022-12-24T11:54:08;9.70;99.90
51839;DHT22;37886;53.174;6.368;2022-12-24T11:56:47;9.60;99.90
51839;DHT22;37886;53.174;6.368;2022-12-24T11:59:18;9.60;99.90
51839;DHT22;37886;53.174;6.368;2022-12-24T12:02:14;9.60;99.90
51839;DHT22;37886;53.174;6.368;2022-12-24T12:04:43;9.60;99.90
51839;DHT22;37886;53.174;6.368;2022-12-24T12:07:21;9.60;99.90
51839;DHT22;37886;53.174;6.368;2022-12-24T12:12:31;9.60;99.90
51839;DHT22;37886;53.174;6.368;2022-12-24T12:15:27;9.50;99.90
51839;DHT22;37886;53.174;6.368;2022-12-24T12:20:37;9.60;99.90
51839;DHT22;37886;53.174;6.368;2022-12-24T12:23:29;9.60;99.90
51839;DHT22;37886;53.174;6.368;2022-12-24T12:26:44;9.70;99.90
51839;DHT22;37886;53.174;6.368;2022-12-24T12:28:58;9.70;99.90
51839;DHT22;37886;53.174;6.368;2022-12-24T12:31:39;9.70;99.90
51839;DHT22;37886;53.174;6.368;2022-12-24T12:37:11;9.60;99.90
51839;DHT22;37886;53.174;6.368;2022-12-24T12:39:39;9.60;99.90
51839;DHT22;37886;53.174;6.368;2022-12-24T12:50:13;9.70;99.90
51839;DHT22;37886;53.174;6.368;2022-12-24T12:58:26;9.70;99.90
51839;DHT22;37886;53.174;6.368;2022-12-24T13:01:04;9.70;99.90
51839;DHT22;37886;53.174;6.368;2022-12-24T13:10:05;9.70;99.90
51839;DHT22;37886;53.174;6.368;2022-12-24T13:12:43;9.70;99.90
51839;DHT22;37886;53.174;6.368;2022-12-24T13:17:51;9.70;99.90
51839;DHT22;37886;53.174;6.368;2022-12-24T13:20:27;9.70;99.90
51839;DHT22;37886;53.174;6.368;2022-12-24T13:22:58;9.70;99.90
51839;DHT22;37886;53.174;6.368;2022-12-24T13:27:53;9.70;99.90
51839;DHT22;37886;53.174;6.368;2022-12-24T13:30:37;9.60;99.90
51839;DHT22;37886;53.174;6.368;2022-12-24T13:33:06;9.70;99.90
51839;DHT22;37886;53.174;6.368;2022-12-24T13:35:34;9.60;99.90
51839;DHT22;37886;53.174;6.368;2022-12-24T13:38:31;9.50;99.90
51839;DHT22;37886;53.174;6.368;2022-12-24T13:49:21;9.40;99.90
51839;DHT22;37886;53.174;6.368;2022-12-24T13:51:50;9.40;99.90
51839;DHT22;37886;53.174;6.368;2022-12-24T13:54:21;9.30;99.90
51839;DHT22;37886;53.174;6.368;2022-12-24T13:56:50;9.30;99.90
51839;DHT22;37886;53.174;6.368;2022-12-24T13:59:32;9.30;99.90
51839;DHT22;37886;53.174;6.368;2022-12-24T14:01:59;9.30;99.90
51839;DHT22;37886;53.174;6.368;2022-12-24T14:04:31;9.20;99.90
51839;DHT22;37886;53.174;6.368;2022-12-24T14:07:01;9.20;99.90
51839;DHT22;37886;53.174;6.368;2022-12-24T14:09:29;9.20;99.90
51839;DHT22;37886;53.174;6.368;2022-12-24T14:14:34;9.10;99.90
51839;DHT22;37886;53.174;6.368;2022-12-24T14:17:02;9.10;99.90
51839;DHT22;37886;53.174;6.368;2022-12-24T14:19:40;9.10;99.90
51839;DHT22;37886;53.174;6.368;2022-12-24T14:24:58;9.00;99.90
51839;DHT22;37886;53.174;6.368;2022-12-24T14:27:51;9.10;99.90
51839;DHT22;37886;53.174;6.368;2022-12-24T14:32:47;9.10;99.90
51839;DHT22;37886;53.174;6.368;2022-12-24T14:37:40;9.00;99.90
51839;DHT22;37886;53.174;6.368;2022-12-24T14:40:12;8.90;99.90
51839;DHT22;37886;53.174;6.368;2022-12-24T14:55:47;8.70;99.90
51839;DHT22;37886;53.174;6.368;2022-12-24T14:58:32;8.70;99.90
51839;DHT22;37886;53.174;6.368;2022-12-24T15:01:15;8.60;99.90
51839;DHT22;37886;53.174;6.368;2022-12-24T15:03:42;8.50;99.90
51839;DHT22;37886;53.174;6.368;2022-12-24T15:06:10;8.40;99.90
51839;DHT22;37886;53.174;6.368;2022-12-24T15:08:42;8.30;99.90
51839;DHT22;37886;53.174;6.368;2022-12-24T15:11:14;8.30;99.90
51839;DHT22;37886;53.174;6.368;2022-12-24T15:13:44;8.30;99.90
51839;DHT22;37886;53.174;6.368;2022-12-24T15:16:13;8.20;99.90
51839;DHT22;37886;53.174;6.368;2022-12-24T15:18:49;8.30;99.90
51839;DHT22;37886;53.174;6.368;2022-12-24T15:21:24;8.30;99.90
51839;DHT22;37886;53.174;6.368;2022-12-24T15:23:52;8.20;99.90
51839;DHT22;37886;53.174;6.368;2022-12-24T15:26:31;8.10;99.90
51839;DHT22;37886;53.174;6.368;2022-12-24T15:29:00;8.10;99.90
51839;DHT22;37886;53.174;6.368;2022-12-24T15:31:27;8.00;99.90
51839;DHT22;37886;53.174;6.368;2022-12-24T15:33:55;8.00;99.90
51839;DHT22;37886;53.174;6.368;2022-12-24T15:36:35;7.80;99.90
51839;DHT22;37886;53.174;6.368;2022-12-24T15:39:07;7.80;99.90
51839;DHT22;37886;53.174;6.368;2022-12-24T15:41:38;7.80;99.90
51839;DHT22;37886;53.174;6.368;2022-12-24T15:44:26;7.70;99.90
51839;DHT22;37886;53.174;6.368;2022-12-24T15:47:00;7.70;99.90
51839;DHT22;37886;53.174;6.368;2022-12-24T15:49:28;7.70;99.90
51839;DHT22;37886;53.174;6.368;2022-12-24T15:52:08;7.60;99.90
51839;DHT22;37886;53.174;6.368;2022-12-24T15:54:35;7.50;99.90
51839;DHT22;37886;53.174;6.368;2022-12-24T15:57:22;7.40;99.90
51839;DHT22;37886;53.174;6.368;2022-12-24T15:59:56;7.30;99.90
51839;DHT22;37886;53.174;6.368;2022-12-24T16:02:41;7.20;99.90
51839;DHT22;37886;53.174;6.368;2022-12-24T16:10:45;6.90;99.90
51839;DHT22;37886;53.174;6.368;2022-12-24T16:13:31;6.90;99.90
51839;DHT22;37886;53.174;6.368;2022-12-24T16:16:07;6.80;99.90
51839;DHT22;37886;53.174;6.368;2022-12-24T16:18:41;6.80;99.90
51839;DHT22;37886;53.174;6.368;2022-12-24T16:21:27;6.80;99.90
51839;DHT22;37886;53.174;6.368;2022-12-24T16:24:29;6.70;99.90
51839;DHT22;37886;53.174;6.368;2022-12-24T16:26:48;6.60;99.90
51839;DHT22;37886;53.174;6.368;2022-12-24T16:29:17;6.50;99.90
51839;DHT22;37886;53.174;6.368;2022-12-24T16:31:57;6.50;99.90
51839;DHT22;37886;53.174;6.368;2022-12-24T16:34:26;6.40;99.90
51839;DHT22;37886;53.174;6.368;2022-12-24T16:36:52;6.40;99.90
51839;DHT22;37886;53.174;6.368;2022-12-24T16:39:20;6.20;99.90
51839;DHT22;37886;53.174;6.368;2022-12-24T16:41:58;6.10;99.90
51839;DHT22;37886;53.174;6.368;2022-12-24T16:44:46;6.30;99.90
51839;DHT22;37886;53.174;6.368;2022-12-24T16:47:16;6.40;99.90
51839;DHT22;37886;53.174;6.368;2022-12-24T16:49:42;6.40;99.90
51839;DHT22;37886;53.174;6.368;2022-12-24T16:52:17;6.40;99.90
51839;DHT22;37886;53.174;6.368;2022-12-24T16:54:43;6.50;99.90
51839;DHT22;37886;53.174;6.368;2022-12-24T16:57:09;6.60;99.90
51839;DHT22;37886;53.174;6.368;2022-12-24T16:59:36;6.60;99.90
51839;DHT22;37886;53.174;6.368;2022-12-24T17:02:02;6.60;99.90
51839;DHT22;37886;53.174;6.368;2022-12-24T17:04:30;6.70;99.90
51839;DHT22;37886;53.174;6.368;2022-12-24T17:06:56;6.60;99.90
51839;DHT22;37886;53.174;6.368;2022-12-24T17:09:21;6.70;99.90
51839;DHT22;37886;53.174;6.368;2022-12-24T17:11:47;6.70;99.90
51839;DHT22;37886;53.174;6.368;2022-12-24T17:14:13;6.70;99.90
51839;DHT22;37886;53.174;6.368;2022-12-24T17:16:41;6.70;99.90
51839;DHT22;37886;53.174;6.368;2022-12-24T17:19:08;6.60;99.90
51839;DHT22;37886;53.174;6.368;2022-12-24T17:21:34;6.50;99.90
51839;DHT22;37886;53.174;6.368;2022-12-24T17:24:00;6.50;99.90
51839;DHT22;37886;53.174;6.368;2022-12-24T17:26:25;6.40;99.90
51839;DHT22;37886;53.174;6.368;2022-12-24T17:28:55;6.40;99.90
51839;DHT22;37886;53.174;6.368;2022-12-24T17:31:22;6.40;99.90
51839;DHT22;37886;53.174;6.368;2022-12-24T17:33:50;6.30;99.90
51839;DHT22;37886;53.174;6.368;2022-12-24T17:36:16;6.30;99.90
51839;DHT22;37886;53.174;6.368;2022-12-24T17:38:42;6.30;99.90
51839;DHT22;37886;53.174;6.368;2022-12-24T17:41:11;6.20;99.90
51839;DHT22;37886;53.174;6.368;2022-12-24T17:43:37;6.00;99.90
51839;DHT22;37886;53.174;6.368;2022-12-24T17:46:04;6.10;99.90
51839;DHT22;37886;53.174;6.368;2022-12-24T17:48:31;6.10;99.90
51839;DHT22;37886;53.174;6.368;2022-12-24T17:50:56;6.10;99.90
51839;DHT22;37886;53.174;6.368;2022-12-24T17:53:22;6.10;99.90
51839;DHT22;37886;53.174;6.368;2022-12-24T17:55:48;6.10;99.90
51839;DHT22;37886;53.174;6.368;2022-12-24T17:58:13;6.10;99.90
51839;DHT22;37886;53.174;6.368;2022-12-24T18:00:40;6.10;99.90
51839;DHT22;37886;53.174;6.368;2022-12-24T18:03:08;6.00;99.90
51839;DHT22;37886;53.174;6.368;2022-12-24T18:05:34;6.00;99.90
51839;DHT22;37886;53.174;6.368;2022-12-24T18:07:59;5.90;99.90